Huachuca City, AZ (85616)

10:18 AM MST del 29 Marzo 2015 (GMT -0700)
Lower Huachuca City | | Change Station
CLOSE
Current Station
Stazione meteo personale
Location: Huachuca City, AZ
Altitudine: 4251 ft
Stazioni meteo nelle vicinanze

Alt. 4251 ft 31.64 °N, 110.34 °W | Updated 12 seconds ago

Parzialmente nuvoloso
Parzialmente nuvoloso
79.2 °F
Sembra 78 °F
N
5.6
Vento Variabile Vento da Sud
Gusts 6.7 mph

Oggi
Massima -- | Minima -- °F
--% Possibilità di precip.
Ieri
Massima -- | Minima -- °F
Precip. -- in
6:13 AM 6:38 PM
Gobba a ponente, 73% visible
Pressione 30.18 in
Visibilità 8.0 miglia
Nuvole Sereno
Indice di calore 78 °F
Punto di rugiada 21 °F
Umidità 12%
Piovosità 0.00 in
Spessore del manto nevoso Non disponibile.
Raggi UV 7 fuori da 12
Polline 10.40 fuori da 12
Qualità dell'aria Non disponibile.
Flu Activity Non disponibile.
METAR KFHU 291658Z AUTO VRB04KT 8SM CLR 24/M08 A3025 RMK AO2 SLP220 T02391076

More Conditions Fewer Conditions

Pressione 30.18 in
Visibilità 8.0 miglia
Nuvole Sereno
Indice di calore 78 °F
Punto di rugiada 21 °F
Umidità 12%
Piovosità 0.00 in
Spessore del manto nevoso Non disponibile.
Raggi UV 7 fuori da 12
Polline 10.40 fuori da 12
Qualità dell'aria Non disponibile.
Flu Activity Non disponibile.
METAR KFHU 291658Z AUTO VRB04KT 8SM CLR 24/M08 A3025 RMK AO2 SLP220 T02391076

More Conditions Fewer Conditions

10-Day Weather Forecast

Almanac

Astronomia

Mar. 29, 2015 Alba Tramonto
Ora attuale
Crepuscolo civile
Crepuscolo nautico
Crepuscolo astronomico
Luna
Estensione della luce visibile
Lunghezza del giorno
Tomorrow will be .
, % of the Moon is Illuminated

Gli estremi di oggi

State Highs State Lows

Community

WunderPhotos

Upload Photos

1,809,301 foto caricate!

WunderBlogs® & News

Nearby

Qualità dell'aria

  Qualità dell'aria Indice AQ Inquinante
Not available.

Profondità neve

Stazione Profondità Altitudine

Attività sismica

Città  Distanza Mag. Data & Ora
Minimo Magnitudo Mostrato è 2.5.

Temperature delle acque costiere

Località Temperatura

Stations

Stazioni meteo nelle vicinanze

Ubicazione della stazione Temp. Raffreddamento del vento Punto di rugiada Umidità Vento Precip. Alt. Aggiornato Tipo